Portada
METAR-TAF:

METAR-TAF

Aeroports :

Khon Kaen, Tailàndia

latitud: 16-26N, longitud: 102-50E, altitud: 165 m

Observació

L'informe es va fer fa 31 minuts, a les 23:00 UTC
Vent 3 kt del Est, variant entre Nord/Nord-Est i Sud-Est
Temperatura 21°C
Humitat 78%
Pressió 1016 hPa
Visibilitat: 7000 m

METAR: VTUK 202300Z 09003KT 030V130 7000 NSC 21/17 Q1016 NOSIG

Hora: 06:31 (23:31 UTC)

Pronòstic

L'informe es va fer fa 6 hores i 31 minuts, a les 17:00 UTC
Pronòstic vàlid del 20 a les 18 UTC al 21 a les 18 UTC
Vent 7 kt del Est/Nord-Est
Visibilitat: 8000 m

TAF: VTUK 201700Z 2018/2118 07007KT 8000 NSC

Observacions i pronòstics meteorològics de més de 4000 aeroports (METAR i TAF).

Les estacions disponibles són els punts grocs i vermells al mapa.

Posi el ratolí al punt desitjat per veure el nom de l'estació.

Feu clic per veure les observacions i els pronòstics meteorològics.

Per canviar el mapa: feu clic els botons verds amb una creu de color negre per apropar; al botó verd amb un guió per allunyar la imatge; o en les fletxes verdes per a mapes adjacents.


METAR-TAF: